Time,TemperatureF,DewpointF,PressureIn,WindDirection,WindDirectionDegrees,WindSpeedMPH,WindSpeedGustMPH,Humidity,HourlyPrecipIn,Conditions,Clouds,dailyrainin,SoftwareType,DateUTC
2013-09-14 00:06:00,57.6,57.0,29.57,SSE,157,0.0,-999.0,98,-99.99,,,0.00,Acu-Link.com,2013-09-14 04:06:00,
2013-09-14 00:21:00,57.0,56.4,29.58,East,90,0.0,-999.0,98,-99.99,,,0.00,Acu-Link.com,2013-09-14 04:21:00,
2013-09-14 00:36:00,56.5,55.9,29.58,NE,45,0.0,-999.0,98,-99.99,,,0.00,Acu-Link.com,2013-09-14 04:36:00,
2013-09-14 00:51:00,56.1,55.5,29.58,ESE,112,0.0,-999.0,98,-99.99,,,0.00,Acu-Link.com,2013-09-14 04:51:00,
2013-09-14 01:06:00,55.8,55.2,29.58,South,180,0.0,-999.0,98,-99.99,,,0.00,Acu-Link.com,2013-09-14 05:06:00,
2013-09-14 01:21:00,55.6,55.0,29.58,East,90,1.1,-999.0,98,-99.99,,,0.00,Acu-Link.com,2013-09-14 05:21:00,
2013-09-14 01:36:00,55.0,54.4,29.58,WSW,247,0.0,-999.0,98,-99.99,,,0.00,Acu-Link.com,2013-09-14 05:36:00,
2013-09-14 01:52:00,54.5,53.9,29.59,ENE,67,1.7,-999.0,98,-99.99,,,0.00,Acu-Link.com,2013-09-14 05:52:00,
2013-09-14 02:07:00,54.0,53.4,29.59,WSW,247,0.0,-999.0,98,-99.99,,,0.00,Acu-Link.com,2013-09-14 06:07:00,
2013-09-14 02:22:00,53.6,53.0,29.59,SE,135,0.0,-999.0,98,-99.99,,,0.00,Acu-Link.com,2013-09-14 06:22:00,
2013-09-14 02:37:00,53.6,53.0,29.59,NNW,337,0.0,-999.0,98,-99.99,,,0.00,Acu-Link.com,2013-09-14 06:37:00,
2013-09-14 02:52:00,52.9,52.4,29.59,WNW,292,0.0,-999.0,98,-99.99,,,0.00,Acu-Link.com,2013-09-14 06:52:00,
2013-09-14 03:07:00,52.2,51.7,29.60,North,0,0.0,-999.0,98,-99.99,,,0.00,Acu-Link.com,2013-09-14 07:07:00,
2013-09-14 03:22:00,51.4,50.9,29.59,NNE,22,0.0,-999.0,98,-99.99,,,0.00,Acu-Link.com,2013-09-14 07:22:00,
2013-09-14 03:37:00,50.9,50.4,29.60,ESE,112,0.0,-999.0,98,-99.99,,,0.00,Acu-Link.com,2013-09-14 07:37:00,
2013-09-14 03:52:00,50.7,50.2,29.60,West,270,0.0,-999.0,98,-99.99,,,0.00,Acu-Link.com,2013-09-14 07:52:00,
2013-09-14 04:08:00,50.5,50.0,29.60,SSW,202,0.0,-999.0,98,-99.99,,,0.00,Acu-Link.com,2013-09-14 08:08:00,
2013-09-14 04:23:00,50.7,50.2,29.60,NW,315,0.0,-999.0,98,-99.99,,,0.00,Acu-Link.com,2013-09-14 08:23:00,
2013-09-14 04:39:00,50.5,50.0,29.60,South,180,0.0,-999.0,98,-99.99,,,0.00,Acu-Link.com,2013-09-14 08:39:00,
2013-09-14 04:54:00,50.9,50.4,29.60,ESE,112,0.0,-999.0,98,-99.99,,,0.00,Acu-Link.com,2013-09-14 08:54:00,
2013-09-14 05:09:00,50.7,50.2,29.61,ENE,67,0.0,-999.0,98,-99.99,,,0.00,Acu-Link.com,2013-09-14 09:09:00,
2013-09-14 05:24:00,50.7,50.2,29.61,West,270,0.0,-999.0,98,-99.99,,,0.00,Acu-Link.com,2013-09-14 09:24:00,
2013-09-14 05:40:00,50.2,49.7,29.62,ESE,112,0.0,-999.0,98,-99.99,,,0.00,Acu-Link.com,2013-09-14 09:40:00,
2013-09-14 05:55:00,51.1,50.6,29.63,ENE,67,0.0,-999.0,98,-99.99,,,0.00,Acu-Link.com,2013-09-14 09:55:00,
2013-09-14 06:10:00,50.9,50.4,29.64,South,180,0.0,-999.0,98,-99.99,,,0.00,Acu-Link.com,2013-09-14 10:10:00,
2013-09-14 06:25:00,50.4,49.9,29.64,WSW,247,0.0,-999.0,98,-99.99,,,0.00,Acu-Link.com,2013-09-14 10:25:00,
2013-09-14 06:40:00,50.0,49.5,29.65,South,180,0.0,-999.0,98,-99.99,,,0.00,Acu-Link.com,2013-09-14 10:40:00,
2013-09-14 06:55:00,50.4,49.9,29.66,SW,225,1.1,-999.0,98,-99.99,,,0.00,Acu-Link.com,2013-09-14 10:55:00,
2013-09-14 07:10:00,51.1,50.6,29.66,SW,225,0.0,-999.0,98,-99.99,,,0.00,Acu-Link.com,2013-09-14 11:10:00,
2013-09-14 07:26:00,51.8,51.3,29.66,SW,225,0.0,-999.0,98,-99.99,,,0.00,Acu-Link.com,2013-09-14 11:26:00,
2013-09-14 07:41:00,52.9,52.4,29.67,South,180,1.1,-999.0,98,-99.99,,,0.00,Acu-Link.com,2013-09-14 11:41:00,
2013-09-14 07:56:00,53.8,53.2,29.67,SE,135,1.1,-999.0,98,-99.99,,,0.00,Acu-Link.com,2013-09-14 11:56:00,
2013-09-14 08:11:00,54.7,54.1,29.67,East,90,2.7,-999.0,98,-99.99,,,0.00,Acu-Link.com,2013-09-14 12:11:00,
2013-09-14 08:26:00,55.6,55.0,29.67,SW,225,1.1,-999.0,98,-99.99,,,0.00,Acu-Link.com,2013-09-14 12:26:00,
2013-09-14 08:41:00,56.5,55.9,29.67,SSE,157,1.7,-999.0,98,-99.99,,,0.00,Acu-Link.com,2013-09-14 12:41:00,
2013-09-14 08:56:00,57.6,57.0,29.68,ENE,67,5.3,-999.0,98,-99.99,,,0.00,Acu-Link.com,2013-09-14 12:56:00,
2013-09-14 09:11:00,58.6,58.0,29.68,NNW,337,2.7,-999.0,98,-99.99,,,0.00,Acu-Link.com,2013-09-14 13:11:00,
2013-09-14 09:26:00,59.7,59.1,29.68,ENE,67,4.2,-999.0,98,-99.99,,,0.00,Acu-Link.com,2013-09-14 13:26:00,
2013-09-14 09:41:00,60.4,59.8,29.68,SSW,202,0.0,-999.0,98,-99.99,,,0.00,Acu-Link.com,2013-09-14 13:41:00,
2013-09-14 09:57:00,61.9,61.3,29.69,North,0,2.7,-999.0,98,-99.99,,,0.00,Acu-Link.com,2013-09-14 13:57:00,
2013-09-14 10:12:00,61.9,61.3,29.68,ESE,112,3.7,-999.0,98,-99.99,,,0.00,Acu-Link.com,2013-09-14 14:12:00,
2013-09-14 10:27:00,63.1,62.5,29.69,ESE,112,3.2,-999.0,98,-99.99,,,0.00,Acu-Link.com,2013-09-14 14:27:00,
2013-09-14 10:42:00,63.0,62.4,29.70,ESE,112,3.7,-999.0,98,-99.99,,,0.00,Acu-Link.com,2013-09-14 14:42:00,
2013-09-14 10:57:00,63.1,62.5,29.69,ESE,112,1.7,-999.0,98,-99.99,,,0.00,Acu-Link.com,2013-09-14 14:57:00,
2013-09-14 11:12:00,63.7,63.1,29.69,ENE,67,3.2,-999.0,98,-99.99,,,0.00,Acu-Link.com,2013-09-14 15:12:00,
2013-09-14 11:27:00,64.4,63.8,29.70,NNE,22,2.2,-999.0,98,-99.99,,,0.00,Acu-Link.com,2013-09-14 15:27:00,
2013-09-14 11:42:00,65.3,64.7,29.70,East,90,4.2,-999.0,98,-99.99,,,0.00,Acu-Link.com,2013-09-14 15:42:00,
2013-09-14 11:57:00,66.7,66.1,29.70,WNW,292,2.7,-999.0,98,-99.99,,,0.00,Acu-Link.com,2013-09-14 15:57:00,
2013-09-14 12:13:00,64.8,64.2,29.71,SE,135,0.0,-999.0,98,-99.99,,,0.00,Acu-Link.com,2013-09-14 16:13:00,
2013-09-14 12:28:00,65.5,64.9,29.70,SE,135,2.7,-999.0,98,-99.99,,,0.00,Acu-Link.com,2013-09-14 16:28:00,
2013-09-14 12:43:00,65.5,64.9,29.70,East,90,1.7,-999.0,98,-99.99,,,0.00,Acu-Link.com,2013-09-14 16:43:00,
2013-09-14 12:58:00,65.8,65.2,29.69,South,180,2.7,-999.0,98,-99.99,,,0.00,Acu-Link.com,2013-09-14 16:58:00,
2013-09-14 13:13:00,66.2,65.6,29.70,NE,45,2.2,-999.0,98,-99.99,,,0.00,Acu-Link.com,2013-09-14 17:13:00,
2013-09-14 13:28:00,66.0,65.4,29.72,ENE,67,2.7,-999.0,98,-99.99,,,0.00,Acu-Link.com,2013-09-14 17:28:00,
2013-09-14 13:43:00,64.8,64.2,29.70,SSW,202,2.7,-999.0,98,-99.99,,,0.00,Acu-Link.com,2013-09-14 17:43:00,
2013-09-14 13:58:00,65.3,64.7,29.72,NE,45,2.7,-999.0,98,-99.99,,,0.00,Acu-Link.com,2013-09-14 17:58:00,
2013-09-14 14:13:00,65.3,64.7,29.71,North,0,2.7,-999.0,98,-99.99,,,0.00,Acu-Link.com,2013-09-14 18:13:00,
2013-09-14 14:29:00,64.2,63.6,29.71,East,90,2.7,-999.0,98,-99.99,,,0.00,Acu-Link.com,2013-09-14 18:29:00,
2013-09-14 14:44:00,65.8,65.2,29.71,ENE,67,1.7,-999.0,98,-99.99,,,0.00,Acu-Link.com,2013-09-14 18:44:00,
2013-09-14 14:59:00,65.7,65.1,29.71,SSW,202,3.2,-999.0,98,-99.99,,,0.00,Acu-Link.com,2013-09-14 18:59:00,
2013-09-14 15:14:00,66.0,65.4,29.71,ESE,112,2.2,-999.0,98,-99.99,,,0.00,Acu-Link.com,2013-09-14 19:14:00,
2013-09-14 15:29:00,64.9,64.3,29.71,West,270,1.7,-999.0,98,-99.99,,,0.00,Acu-Link.com,2013-09-14 19:29:00,
2013-09-14 15:44:00,65.1,64.5,29.71,WNW,292,1.7,-999.0,98,-99.99,,,0.00,Acu-Link.com,2013-09-14 19:44:00,
2013-09-14 15:59:00,64.8,64.2,29.71,SE,135,2.7,-999.0,98,-99.99,,,0.00,Acu-Link.com,2013-09-14 19:59:00,
2013-09-14 16:14:00,65.3,64.7,29.72,South,180,2.2,-999.0,98,-99.99,,,0.00,Acu-Link.com,2013-09-14 20:14:00,
2013-09-14 16:29:00,64.9,64.3,29.72,SE,135,1.1,-999.0,98,-99.99,,,0.00,Acu-Link.com,2013-09-14 20:29:00,
2013-09-14 16:45:00,65.1,64.5,29.72,North,0,1.7,-999.0,98,-99.99,,,0.00,Acu-Link.com,2013-09-14 20:45:00,
2013-09-14 17:00:00,64.4,63.8,29.73,SSE,157,2.7,-999.0,98,-99.99,,,0.00,Acu-Link.com,2013-09-14 21:00:00,
2013-09-14 17:15:00,64.8,64.2,29.74,West,270,4.7,-999.0,98,-99.99,,,0.00,Acu-Link.com,2013-09-14 21:15:00,
2013-09-14 17:30:00,64.4,63.8,29.73,ESE,112,1.7,-999.0,98,-99.99,,,0.00,Acu-Link.com,2013-09-14 21:30:00,
2013-09-14 17:45:00,63.3,62.7,29.74,SE,135,5.3,-999.0,98,-99.99,,,0.00,Acu-Link.com,2013-09-14 21:45:00,
2013-09-14 18:00:00,61.3,60.7,29.76,North,0,3.7,-999.0,98,-99.99,,,0.00,Acu-Link.com,2013-09-14 22:00:00,
2013-09-14 18:15:00,60.3,59.7,29.76,South,180,1.7,-999.0,98,-99.99,,,0.00,Acu-Link.com,2013-09-14 22:15:00,
2013-09-14 18:30:00,59.2,58.6,29.76,South,180,1.7,-999.0,98,-99.99,,,0.00,Acu-Link.com,2013-09-14 22:30:00,
2013-09-14 18:45:00,58.3,57.7,29.77,NNW,337,1.7,-999.0,98,-99.99,,,0.00,Acu-Link.com,2013-09-14 22:45:00,
2013-09-14 19:01:00,57.6,57.0,29.76,SW,225,0.0,-999.0,98,-99.99,,,0.00,Acu-Link.com,2013-09-14 23:01:00,
2013-09-14 19:16:00,56.7,56.1,29.77,NNW,337,0.0,-999.0,98,-99.99,,,0.00,Acu-Link.com,2013-09-14 23:16:00,
2013-09-14 19:31:00,55.6,55.0,29.77,ESE,112,0.0,-999.0,98,-99.99,,,0.00,Acu-Link.com,2013-09-14 23:31:00,
2013-09-14 19:46:00,54.7,54.1,29.78,WSW,247,0.0,-999.0,98,-99.99,,,0.00,Acu-Link.com,2013-09-14 23:46:00,
2013-09-14 20:01:00,54.1,53.5,29.79,WSW,247,0.0,-999.0,98,-99.99,,,0.00,Acu-Link.com,2013-09-15 00:01:00,
2013-09-14 20:16:00,53.4,52.8,29.79,West,270,0.0,-999.0,98,-99.99,,,0.00,Acu-Link.com,2013-09-15 00:16:00,
2013-09-14 20:31:00,53.1,52.5,29.80,WNW,292,0.0,-999.0,98,-99.99,,,0.00,Acu-Link.com,2013-09-15 00:31:00,
2013-09-14 20:46:00,52.9,52.4,29.80,SE,135,0.0,-999.0,98,-99.99,,,0.00,Acu-Link.com,2013-09-15 00:46:00,
2013-09-14 21:01:00,52.9,52.4,29.80,West,270,0.0,-999.0,98,-99.99,,,0.00,Acu-Link.com,2013-09-15 01:01:00,
2013-09-14 21:17:00,52.5,52.0,29.82,ESE,112,0.0,-999.0,98,-99.99,,,0.00,Acu-Link.com,2013-09-15 01:17:00,
2013-09-14 21:32:00,52.2,51.7,29.81,SSE,157,0.0,-999.0,98,-99.99,,,0.00,Acu-Link.com,2013-09-15 01:32:00,
2013-09-14 21:47:00,52.0,51.5,29.81,SW,225,0.0,-999.0,98,-99.99,,,0.00,Acu-Link.com,2013-09-15 01:47:00,
2013-09-14 22:02:00,51.4,50.9,29.82,South,180,0.0,-999.0,98,-99.99,,,0.00,Acu-Link.com,2013-09-15 02:02:00,
2013-09-14 22:17:00,50.9,50.4,29.82,WNW,292,0.0,-999.0,98,-99.99,,,0.00,Acu-Link.com,2013-09-15 02:17:00,
2013-09-14 22:32:00,50.0,49.5,29.81,West,270,0.0,-999.0,98,-99.99,,,0.00,Acu-Link.com,2013-09-15 02:32:00,
2013-09-14 22:47:00,49.3,48.8,29.82,SSE,157,0.0,-999.0,98,-99.99,,,0.00,Acu-Link.com,2013-09-15 02:47:00,
2013-09-14 23:02:00,49.5,49.0,29.83,ESE,112,0.0,-999.0,98,-99.99,,,0.00,Acu-Link.com,2013-09-15 03:02:00,
2013-09-14 23:17:00,48.9,48.4,29.82,WNW,292,0.0,-999.0,98,-99.99,,,0.00,Acu-Link.com,2013-09-15 03:17:00,
2013-09-14 23:32:00,48.0,47.5,29.83,NE,45,0.0,-999.0,98,-99.99,,,0.00,Acu-Link.com,2013-09-15 03:32:00,
2013-09-14 23:48:00,47.5,47.0,29.83,WSW,247,0.0,-999.0,98,-99.99,,,0.00,Acu-Link.com,2013-09-15 03:48:00,